メインページ
METAR-TAF:

METAR-TAF

空港 :

Grande Prairie, アルバータ州, カナダ

緯度: 55-11N, 経度: 118-53W, 海抜: 666m

現時点の気象観測

当レポートは44分前の02:00(UTC)に作成
の風 4kt
気温 -11°C
湿度 85%
気圧 1007 hPa
視程: 40.2km
高度10000ftの千切れ雲あり

METAR: CYQU 070200Z 35004KT 25SM BKN100 M11/M13 A2974 RMK AS6 SLP126

時間: 19:44 (02:44 UTC)

予報

当レポートは2時間6分前の00:38(UTC)に作成
予報は07日の 01時(UTC)から 07日の 13時(UTC)まで有効
西の風 3kt
視程: 10km
高度8000ftの雲は散在している
高度15000ftの千切れ雲あり
高度27000ftの千切れ雲あり
07日の 0400時(UTC)から
北西の風 5kt
視程: 10km
高度4000ftの雲は散在している
高度8000ftの曇り
07日の 0900時(UTC)から
北/北西の風 5kt
視程: 10km
高度2000ftの雲は散在している
高度4000ftの千切れ雲あり
高度8000ftの曇り
07日の 09時(UTC)から 07日の 13時(UTC)まで一時的に
視程: 3.2km
高度2000ftの千切れ雲あり
高度4000ftの千切れ雲あり
高度8000ftの曇り
小雪
07日の 10時(UTC)から 07日の 12時(UTC)まで徐々に
北東の風 10kt

TAF: CYQU 070038Z 0701/0713 28003KT P6SM SCT080 BKN150 BKN270 FM070400 32005KT P6SM SCT040 OVC080 FM070900 34005KT P6SM SCT020 BKN040 OVC080 TEMPO 0709/0713 2SM -SN BKN020 BKN040 OVC080 BECMG 0710/0712 04010KT RMK NXT FCST BY 070700Z

4,000以上の空港の気象観測と天気予報(METAR報とTAF報)

利用可能な観測所は地図上に黄色い丸と赤い丸で示す。

丸の上にカーソルを重ねると観測所名を参照できる。

次にクリックすると気象観測と天気予報を参照できる。

マップの切り替え:黒色「×」印の緑ボタンをクリックして拡大、「-」印の緑ボタンをクリックして縮小、緑色の三角印をクリックして隣りの地図に切り替え


METAR-TAF: